createdAt,value
2019-01-17T00:00:04.239Z,984.13
2019-01-17T00:01:10.313Z,984.06
2019-01-17T00:02:16.395Z,983.99
2019-01-17T00:03:22.956Z,983.85
2019-01-17T00:04:28.569Z,983.83
2019-01-17T00:05:35.117Z,983.75
2019-01-17T00:06:40.698Z,983.65
2019-01-17T00:07:47.277Z,983.51
2019-01-17T00:08:52.860Z,983.51
2019-01-17T00:09:58.948Z,983.51
2019-01-17T00:11:05.011Z,983.47
2019-01-17T00:12:11.094Z,983.55
2019-01-17T00:13:17.162Z,983.52
2019-01-17T00:14:23.766Z,983.46
2019-01-17T00:15:29.830Z,983.37
2019-01-17T00:16:35.411Z,983.37
2019-01-17T00:17:41.619Z,983.41
2019-01-17T00:18:48.067Z,983.40
2019-01-17T00:19:53.657Z,983.37
2019-01-17T00:20:59.741Z,983.29
2019-01-17T00:22:05.813Z,983.23
2019-01-17T00:23:11.891Z,983.34
2019-01-17T00:24:18.459Z,983.25
2019-01-17T00:25:25.068Z,983.20
2019-01-17T00:26:30.149Z,983.16
2019-01-17T00:27:36.237Z,983.13
2019-01-17T00:28:42.300Z,983.13
2019-01-17T00:29:48.890Z,983.04
2019-01-17T00:30:54.484Z,982.90
2019-01-17T00:32:01.065Z,982.85
2019-01-17T00:33:06.655Z,982.80
2019-01-17T00:34:13.240Z,982.73
2019-01-17T00:35:18.831Z,982.70
2019-01-17T00:36:24.937Z,982.71
2019-01-17T00:37:31.642Z,982.71
2019-01-17T00:38:37.603Z,982.67
2019-01-17T00:39:43.186Z,982.64
2019-01-17T00:40:49.786Z,982.63
2019-01-17T00:41:55.865Z,982.64
2019-01-17T00:43:01.952Z,982.63
2019-01-17T00:44:08.039Z,982.65
2019-01-17T00:45:13.639Z,982.65
2019-01-17T00:46:20.234Z,982.58
2019-01-17T00:47:26.025Z,982.56
2019-01-17T00:48:32.402Z,982.60
2019-01-17T00:49:38.008Z,982.58
2019-01-17T00:50:44.087Z,982.55
2019-01-17T00:51:50.684Z,982.50
2019-01-17T00:52:56.768Z,982.46
2019-01-17T00:54:02.372Z,982.37
2019-01-17T00:55:08.968Z,982.21
2019-01-17T00:56:15.053Z,982.24
2019-01-17T00:57:21.159Z,982.20
2019-01-17T00:58:26.752Z,982.21
2019-01-17T00:59:33.337Z,982.17
2019-01-17T01:00:38.953Z,982.19
2019-01-17T01:01:45.049Z,982.18
2019-01-17T01:02:51.641Z,982.24
2019-01-17T01:03:57.248Z,982.20
2019-01-17T01:05:03.358Z,982.23
2019-01-17T01:06:09.952Z,982.26
2019-01-17T01:07:16.045Z,982.23
2019-01-17T01:08:22.159Z,982.25
2019-01-17T01:09:27.762Z,982.31
2019-01-17T01:10:34.370Z,982.41
2019-01-17T01:11:39.961Z,982.52
2019-01-17T01:12:46.060Z,982.64
2019-01-17T01:13:52.156Z,982.85
2019-01-17T01:14:58.256Z,983.00
2019-01-17T01:16:05.835Z,983.04
2019-01-17T01:17:10.446Z,983.18
2019-01-17T01:18:16.543Z,983.39
2019-01-17T01:19:23.136Z,983.23
2019-01-17T01:20:29.238Z,983.21
2019-01-17T01:21:34.836Z,983.23
2019-01-17T01:22:40.932Z,983.30
2019-01-17T01:23:47.604Z,983.35
2019-01-17T01:24:53.127Z,983.28
2019-01-17T01:25:59.218Z,983.19
2019-01-17T01:27:05.818Z,983.12
2019-01-17T01:28:11.908Z,983.16
2019-01-17T01:29:18.006Z,983.00
2019-01-17T01:30:25.092Z,982.93
2019-01-17T01:31:30.208Z,983.04
2019-01-17T01:32:36.291Z,982.99
2019-01-17T01:33:41.891Z,983.04
2019-01-17T01:44:09.656Z,982.87
2019-01-17T01:45:15.744Z,982.85
2019-01-17T01:46:21.851Z,982.84
2019-01-17T01:47:27.955Z,982.92
2019-01-17T01:48:34.061Z,982.83
2019-01-17T01:49:40.627Z,982.83
2019-01-17T01:50:46.755Z,982.77
2019-01-17T01:51:52.855Z,982.74
2019-01-17T01:52:58.955Z,982.67
2019-01-17T01:54:05.056Z,982.82
2019-01-17T01:55:11.154Z,982.57
2019-01-17T01:56:16.765Z,982.54
2019-01-17T01:57:23.371Z,982.54
2019-01-17T01:58:28.974Z,982.58
2019-01-17T01:59:35.604Z,982.62
2019-01-17T02:00:42.878Z,982.57
2019-01-17T02:01:47.795Z,982.49
2019-01-17T02:12:15.172Z,982.51
2019-01-17T02:22:43.040Z,982.81
2019-01-17T02:23:49.146Z,982.95
2019-01-17T02:34:17.509Z,983.36
2019-01-17T02:35:23.629Z,983.28
2019-01-17T02:45:51.054Z,983.49
2019-01-17T02:46:57.159Z,983.51
2019-01-17T02:48:03.287Z,983.50
2019-01-17T02:58:31.743Z,983.60
2019-01-17T03:08:59.155Z,984.41
2019-01-17T03:19:27.030Z,984.87
2019-01-17T03:29:55.370Z,984.84
2019-01-17T03:40:22.677Z,984.74
2019-01-17T03:41:29.269Z,984.66
2019-01-17T03:51:57.059Z,984.73
2019-01-17T04:02:24.796Z,984.71
2019-01-17T04:12:52.048Z,984.50
2019-01-17T04:23:20.276Z,984.32
2019-01-17T04:33:48.011Z,984.33
2019-01-17T04:44:15.266Z,984.27
2019-01-17T04:54:43.011Z,984.20
2019-01-17T05:05:10.732Z,984.17
2019-01-17T05:15:38.474Z,984.21
2019-01-17T05:26:06.174Z,984.07
2019-01-17T05:36:33.876Z,984.05
2019-01-17T05:47:02.078Z,984.08
2019-01-17T05:57:29.799Z,984.04
2019-01-17T06:07:57.496Z,984.13
2019-01-17T06:18:24.668Z,983.95
2019-01-17T06:28:52.386Z,984.04
2019-01-17T06:39:20.593Z,983.85
2019-01-17T06:49:48.302Z,983.78
2019-01-17T07:00:15.530Z,983.82
2019-01-17T07:10:43.746Z,983.91
2019-01-17T07:21:11.460Z,983.92
2019-01-17T07:31:39.175Z,983.87
2019-01-17T07:42:06.898Z,983.73
2019-01-17T07:52:34.653Z,983.46
2019-01-17T07:53:40.762Z,983.31
2019-01-17T07:54:46.382Z,983.24
2019-01-17T07:55:52.609Z,983.43
2019-01-17T07:56:59.052Z,983.56
2019-01-17T07:58:05.179Z,983.61
2019-01-17T07:59:11.300Z,983.64
2019-01-17T08:00:16.891Z,983.72
2019-01-17T08:01:23.959Z,983.81
2019-01-17T08:11:51.372Z,983.91
2019-01-17T08:22:19.259Z,983.78
2019-01-17T08:23:25.367Z,983.71
2019-01-17T08:24:31.480Z,983.71
2019-01-17T08:25:37.095Z,983.77
2019-01-17T08:26:43.194Z,983.82
2019-01-17T08:37:11.103Z,983.91
2019-01-17T08:38:17.197Z,983.90
2019-01-17T08:39:23.302Z,983.88
2019-01-17T08:49:51.204Z,983.97
2019-01-17T08:50:57.314Z,983.91
2019-01-17T08:52:03.925Z,983.93
2019-01-17T08:53:09.541Z,983.92
2019-01-17T08:54:16.148Z,983.91
2019-01-17T09:04:43.559Z,984.10
2019-01-17T09:05:49.682Z,984.02
2019-01-17T09:06:55.788Z,983.98
2019-01-17T09:17:23.744Z,983.92
2019-01-17T09:18:29.856Z,983.89
2019-01-17T09:19:36.610Z,983.85
2019-01-17T09:20:43.459Z,983.90
2019-01-17T09:21:48.726Z,983.86
2019-01-17T09:22:54.846Z,983.91
2019-01-17T09:24:00.989Z,983.88
2019-01-17T09:25:07.129Z,983.89
2019-01-17T09:26:12.768Z,983.91
2019-01-17T09:27:19.408Z,983.93
2019-01-17T09:28:25.562Z,983.93
2019-01-17T09:29:31.706Z,983.89
2019-01-17T09:30:37.359Z,983.88
2019-01-17T09:31:43.503Z,983.86
2019-01-17T09:32:49.655Z,983.89
2019-01-17T09:33:55.808Z,983.91
2019-01-17T09:35:02.604Z,983.86
2019-01-17T09:36:08.115Z,983.85
2019-01-17T09:37:14.257Z,983.85
2019-01-17T09:38:20.925Z,983.80
2019-01-17T09:39:26.566Z,983.80
2019-01-17T09:40:33.225Z,983.76
2019-01-17T09:41:38.854Z,983.79
2019-01-17T09:42:45.481Z,983.74
2019-01-17T09:43:51.126Z,983.72
2019-01-17T09:44:57.260Z,983.75
2019-01-17T09:46:03.408Z,983.74
2019-01-17T09:47:10.038Z,983.76
2019-01-17T09:48:16.171Z,983.75
2019-01-17T09:49:22.301Z,983.76
2019-01-17T09:50:27.944Z,983.75
2019-01-17T09:51:34.617Z,983.78
2019-01-17T09:52:40.706Z,983.76
2019-01-17T09:53:46.366Z,983.76
2019-01-17T09:54:52.984Z,983.81
2019-01-17T09:55:59.129Z,983.78
2019-01-17T09:57:04.757Z,983.78
2019-01-17T09:58:11.388Z,983.77
2019-01-17T09:59:17.511Z,983.78
2019-01-17T10:00:23.660Z,983.75
2019-01-17T10:01:29.784Z,983.76
2019-01-17T10:02:35.908Z,983.74
2019-01-17T10:03:41.558Z,983.78
2019-01-17T10:04:48.179Z,983.78
2019-01-17T10:05:53.817Z,983.78
2019-01-17T10:06:59.975Z,983.78
2019-01-17T10:08:06.094Z,983.80
2019-01-17T10:09:12.241Z,983.76
2019-01-17T10:10:18.378Z,983.88
2019-01-17T10:11:24.508Z,983.84
2019-01-17T10:12:30.658Z,983.75
2019-01-17T10:13:38.287Z,983.78
2019-01-17T10:14:42.952Z,983.73
2019-01-17T10:15:49.087Z,983.70
2019-01-17T10:16:55.243Z,983.76
2019-01-17T10:18:01.896Z,983.52
2019-01-17T10:19:08.048Z,983.41
2019-01-17T10:20:13.705Z,983.39
2019-01-17T10:21:20.347Z,983.26
2019-01-17T10:22:25.997Z,983.22
2019-01-17T10:23:32.158Z,983.14
2019-01-17T10:24:38.327Z,983.02
2019-01-17T10:25:44.953Z,982.79
2019-01-17T10:26:51.111Z,982.68
2019-01-17T10:27:56.754Z,982.58
2019-01-17T10:29:03.406Z,982.37
2019-01-17T10:30:09.103Z,982.31
2019-01-17T10:31:15.700Z,982.26
2019-01-17T10:32:21.360Z,982.23
2019-01-17T10:33:27.598Z,982.18
2019-01-17T10:34:33.641Z,982.19
2019-01-17T10:35:40.268Z,982.19
2019-01-17T10:36:45.916Z,982.16
2019-01-17T10:37:52.633Z,982.06
2019-01-17T10:38:58.704Z,982.05
2019-01-17T10:40:04.844Z,981.85
2019-01-17T10:41:10.985Z,981.86
2019-01-17T10:42:16.636Z,981.90
2019-01-17T10:43:23.605Z,981.85
2019-01-17T10:44:29.414Z,981.68
2019-01-17T10:45:35.576Z,981.80
2019-01-17T10:46:41.708Z,981.69
2019-01-17T10:47:47.367Z,981.68
2019-01-17T10:48:54.284Z,981.63
2019-01-17T10:49:59.688Z,981.63
2019-01-17T10:51:05.849Z,981.68
2019-01-17T10:52:12.613Z,981.54
2019-01-17T10:53:18.651Z,981.49
2019-01-17T10:54:24.305Z,981.41
2019-01-17T10:55:30.480Z,981.46
2019-01-17T10:56:41.609Z,981.57
2019-01-17T10:57:42.756Z,981.59
2019-01-17T10:58:49.396Z,981.63
2019-01-17T10:59:55.076Z,981.54
2019-01-17T11:01:01.702Z,981.62
2019-01-17T11:02:07.867Z,981.55
2019-01-17T11:03:13.528Z,981.57
2019-01-17T11:04:20.160Z,981.49
2019-01-17T11:05:26.332Z,981.43
2019-01-17T11:06:31.990Z,981.33
2019-01-17T11:07:38.145Z,981.32
2019-01-17T11:08:44.315Z,981.04
2019-01-17T11:09:51.022Z,981.05
2019-01-17T11:10:57.157Z,980.82
2019-01-17T11:12:02.845Z,980.74
2019-01-17T11:13:09.024Z,980.70
2019-01-17T11:14:15.706Z,980.55
2019-01-17T11:15:21.634Z,980.37
2019-01-17T11:16:28.119Z,980.53
2019-01-17T11:17:34.287Z,980.80
2019-01-17T11:18:39.981Z,980.52
2019-01-17T11:19:46.681Z,980.32
2019-01-17T11:20:52.884Z,980.35
2019-01-17T11:21:59.067Z,980.15
2019-01-17T11:23:05.239Z,980.28
2019-01-17T11:24:11.437Z,980.22
2019-01-17T11:25:17.132Z,980.41
2019-01-17T11:26:23.319Z,980.32
2019-01-17T11:27:29.497Z,980.27
2019-01-17T11:28:35.674Z,980.31
2019-01-17T11:29:42.338Z,980.38
2019-01-17T11:30:48.603Z,980.35
2019-01-17T11:31:54.221Z,980.30
2019-01-17T11:33:00.390Z,980.56
2019-01-17T11:34:06.566Z,980.46
2019-01-17T11:35:13.246Z,980.37
2019-01-17T11:36:18.942Z,980.31
2019-01-17T11:37:25.630Z,980.10
2019-01-17T11:38:31.331Z,979.96
2019-01-17T11:39:37.545Z,979.81
2019-01-17T11:40:44.249Z,979.63
2019-01-17T11:41:51.456Z,979.43
2019-01-17T11:42:56.675Z,979.67
2019-01-17T11:44:02.401Z,979.69
2019-01-17T11:45:08.618Z,979.65
2019-01-17T11:46:15.321Z,979.61
2019-01-17T11:47:21.577Z,979.63
2019-01-17T11:48:27.307Z,979.92
2019-01-17T11:49:33.995Z,979.90
2019-01-17T11:50:40.212Z,979.70
2019-01-17T11:51:46.447Z,979.83
2019-01-17T11:52:52.150Z,979.80
2019-01-17T11:53:58.363Z,979.84
2019-01-17T11:55:04.582Z,979.65
2019-01-17T11:56:10.789Z,979.81
2019-01-17T11:57:18.616Z,979.56
2019-01-17T11:58:23.724Z,979.56
2019-01-17T11:59:29.451Z,979.66
2019-01-17T12:00:36.170Z,979.76
2019-01-17T12:01:42.383Z,979.74
2019-01-17T12:02:48.608Z,979.93
2019-01-17T12:03:54.844Z,979.72
2019-01-17T12:05:02.092Z,979.82
2019-01-17T12:06:06.870Z,979.58
2019-01-17T12:07:13.583Z,979.65
2019-01-17T12:08:19.328Z,979.62
2019-01-17T12:09:25.550Z,979.71
2019-01-17T12:10:31.825Z,979.63
2019-01-17T12:11:38.592Z,979.38
2019-01-17T12:12:44.384Z,978.71
2019-01-17T12:13:51.177Z,978.13
2019-01-17T12:14:56.984Z,978.25
2019-01-17T12:16:03.272Z,978.39
2019-01-17T12:17:09.572Z,978.89
2019-01-17T12:18:16.351Z,979.14
2019-01-17T12:19:22.638Z,979.33
2019-01-17T12:20:28.459Z,979.36
2019-01-17T12:21:35.214Z,979.58
2019-01-17T12:22:40.980Z,979.78
2019-01-17T12:23:47.246Z,980.03
2019-01-17T12:24:54.004Z,980.19
2019-01-17T12:26:00.293Z,980.22
2019-01-17T12:27:06.605Z,980.39
2019-01-17T12:28:12.322Z,980.49
2019-01-17T12:29:18.564Z,980.48
2019-01-17T12:30:25.346Z,980.73
2019-01-17T12:31:31.063Z,980.84
2019-01-17T12:32:37.827Z,980.87
2019-01-17T12:33:44.056Z,980.94
2019-01-17T12:34:49.815Z,980.89
2019-01-17T12:35:56.557Z,981.01
2019-01-17T12:37:02.278Z,981.10
2019-01-17T12:38:08.530Z,980.94
2019-01-17T12:39:15.256Z,981.01
2019-01-17T12:40:21.612Z,980.83
2019-01-17T12:41:27.233Z,981.04
2019-01-17T12:42:33.943Z,980.95
2019-01-17T12:43:40.152Z,981.07
2019-01-17T12:44:45.920Z,981.19
2019-01-17T12:45:52.653Z,981.36
2019-01-17T12:46:58.398Z,981.28
2019-01-17T12:48:05.115Z,981.35
2019-01-17T12:49:11.359Z,981.42
2019-01-17T12:50:17.101Z,981.42
2019-01-17T12:51:23.360Z,981.46
2019-01-17T12:52:30.030Z,981.61
2019-01-17T12:53:36.315Z,981.82
2019-01-17T12:54:42.505Z,981.97
2019-01-17T12:55:48.753Z,982.01
2019-01-17T12:56:54.974Z,982.08
2019-01-17T12:58:00.692Z,982.18
2019-01-17T12:59:06.902Z,982.19
2019-01-17T13:00:13.608Z,982.12
2019-01-17T13:01:19.333Z,982.09
2019-01-17T13:02:25.997Z,982.15
2019-01-17T13:03:31.718Z,982.16
2019-01-17T13:04:37.914Z,982.16
2019-01-17T13:05:44.608Z,982.16
2019-01-17T13:06:50.783Z,982.27
2019-01-17T13:07:56.513Z,982.34
2019-01-17T13:09:03.168Z,982.27
2019-01-17T13:10:09.358Z,982.28
2019-01-17T13:11:15.042Z,982.40
2019-01-17T13:12:21.739Z,982.46
2019-01-17T13:13:27.920Z,982.57
2019-01-17T13:14:35.127Z,982.51
2019-01-17T13:15:39.845Z,982.60
2019-01-17T13:16:46.535Z,982.79
2019-01-17T13:17:52.729Z,982.85
2019-01-17T13:18:58.935Z,982.93
2019-01-17T13:20:04.644Z,982.86
2019-01-17T13:21:10.824Z,982.87
2019-01-17T13:22:17.604Z,982.94
2019-01-17T13:23:23.691Z,982.89
2019-01-17T13:24:29.378Z,982.91
2019-01-17T13:25:35.553Z,982.70
2019-01-17T13:26:41.729Z,982.67
2019-01-17T13:27:47.934Z,982.40
2019-01-17T13:28:54.604Z,982.25
2019-01-17T13:30:00.776Z,982.03
2019-01-17T13:31:06.957Z,981.96
2019-01-17T13:32:12.623Z,981.73
2019-01-17T13:33:20.953Z,981.64
2019-01-17T13:34:25.609Z,981.29
2019-01-17T13:35:31.653Z,981.16
2019-01-17T13:36:40.526Z,981.11
2019-01-17T13:37:43.506Z,981.00
2019-01-17T13:38:50.151Z,980.68
2019-01-17T13:39:56.324Z,980.50
2019-01-17T13:41:02.478Z,980.37
2019-01-17T13:42:08.653Z,980.21
2019-01-17T13:43:14.316Z,979.99
2019-01-17T13:44:20.626Z,979.69
2019-01-17T13:45:26.659Z,979.64
2019-01-17T13:46:33.771Z,979.48
2019-01-17T13:47:39.630Z,979.57
2019-01-17T13:48:45.643Z,979.52
2019-01-17T13:49:51.317Z,979.37
2019-01-17T13:50:57.491Z,979.36
2019-01-17T13:52:03.660Z,979.22
2019-01-17T13:53:09.825Z,979.10
2019-01-17T13:54:15.991Z,979.23
2019-01-17T13:55:22.159Z,979.13
2019-01-17T13:56:28.837Z,979.04
2019-01-17T13:57:34.509Z,978.73
2019-01-17T13:58:41.203Z,978.47
2019-01-17T13:59:46.890Z,978.32
2019-01-17T14:00:53.095Z,977.97
2019-01-17T14:01:59.314Z,977.96
2019-01-17T14:03:05.521Z,977.74
2019-01-17T14:04:12.300Z,977.86
2019-01-17T14:05:18.474Z,977.88
2019-01-17T14:06:24.245Z,977.99
2019-01-17T14:07:30.448Z,978.14
2019-01-17T14:08:37.180Z,977.91
2019-01-17T14:09:43.432Z,977.80
2019-01-17T14:10:49.166Z,978.03
2019-01-17T14:11:55.409Z,978.50
2019-01-17T14:13:02.129Z,978.93
2019-01-17T14:14:07.884Z,979.01
2019-01-17T14:15:14.076Z,979.16
2019-01-17T14:16:20.786Z,979.31
2019-01-17T14:17:26.486Z,979.49
2019-01-17T14:18:32.692Z,979.49
2019-01-17T14:19:38.913Z,979.39
2019-01-17T14:20:45.110Z,979.47
2019-01-17T14:21:51.801Z,979.55
2019-01-17T14:22:57.989Z,979.52
2019-01-17T14:24:04.204Z,979.67
2019-01-17T14:25:10.391Z,980.07
2019-01-17T14:26:16.097Z,980.17
2019-01-17T14:27:23.767Z,980.43
2019-01-17T14:28:28.469Z,980.85
2019-01-17T14:29:35.167Z,981.31
2019-01-17T14:30:41.840Z,981.79
2019-01-17T14:31:47.604Z,982.35
2019-01-17T14:32:53.678Z,982.82
2019-01-17T14:33:59.840Z,983.33
2019-01-17T14:35:06.013Z,983.69
2019-01-17T14:36:11.668Z,983.97
2019-01-17T14:37:18.309Z,984.13
2019-01-17T14:38:23.958Z,984.26
2019-01-17T14:39:30.622Z,984.47
2019-01-17T14:40:36.712Z,984.50
2019-01-17T14:41:42.831Z,984.48
2019-01-17T14:42:48.457Z,984.46
2019-01-17T14:43:54.591Z,984.34
2019-01-17T14:45:01.205Z,984.35
2019-01-17T14:46:07.310Z,984.31
2019-01-17T14:47:13.415Z,984.29
2019-01-17T14:48:19.608Z,984.24
2019-01-17T14:49:25.630Z,984.26
2019-01-17T14:50:31.745Z,984.16
2019-01-17T14:51:37.549Z,984.09
2019-01-17T14:52:43.442Z,984.07
2019-01-17T14:53:50.037Z,984.10
2019-01-17T14:54:56.167Z,984.15
2019-01-17T14:56:02.282Z,984.10
2019-01-17T14:57:08.335Z,984.08
2019-01-17T14:58:15.023Z,984.11
2019-01-17T14:59:20.607Z,984.07
2019-01-17T15:00:26.652Z,983.99
2019-01-17T15:01:32.742Z,984.04
2019-01-17T15:02:38.875Z,984.02
2019-01-17T15:03:44.921Z,983.98
2019-01-17T15:04:50.520Z,984.15
2019-01-17T15:05:57.149Z,984.02
2019-01-17T15:07:02.704Z,984.11
2019-01-17T15:08:09.304Z,984.00
2019-01-17T15:09:15.395Z,984.01
2019-01-17T15:10:21.609Z,983.94
2019-01-17T15:11:27.566Z,983.94
2019-01-17T15:12:34.669Z,983.91
2019-01-17T15:13:39.742Z,984.00
2019-01-17T15:14:45.840Z,983.94
2019-01-17T15:15:51.410Z,983.98
2019-01-17T15:16:58.075Z,984.01
2019-01-17T15:18:04.061Z,984.04
2019-01-17T15:19:12.822Z,983.97
2019-01-17T15:20:16.329Z,984.08
2019-01-17T15:21:22.321Z,984.01
2019-01-17T15:22:28.397Z,983.95
2019-01-17T15:23:34.477Z,984.04
2019-01-17T15:24:40.592Z,983.91
2019-01-17T15:25:46.655Z,984.15
2019-01-17T15:26:52.711Z,983.95
2019-01-17T15:27:58.796Z,983.91
2019-01-17T15:29:04.881Z,983.96
2019-01-17T15:30:10.961Z,984.05
2019-01-17T15:31:16.543Z,984.12
2019-01-17T15:32:24.127Z,984.04
2019-01-17T15:33:29.196Z,984.06
2019-01-17T15:34:35.291Z,984.02
2019-01-17T15:35:41.353Z,984.03
2019-01-17T15:36:47.430Z,984.12
2019-01-17T15:37:53.603Z,984.19
2019-01-17T15:38:59.610Z,984.14
2019-01-17T15:40:05.638Z,984.10
2019-01-17T15:41:11.728Z,984.16
2019-01-17T15:42:17.796Z,984.28
2019-01-17T15:43:23.847Z,984.07
2019-01-17T15:44:29.919Z,984.10
2019-01-17T15:45:35.616Z,984.13
2019-01-17T15:46:42.088Z,984.15
2019-01-17T15:47:48.120Z,984.14
2019-01-17T15:48:54.677Z,984.22
2019-01-17T15:50:00.243Z,984.22
2019-01-17T15:51:06.327Z,984.28
2019-01-17T15:52:12.359Z,984.29
2019-01-17T15:53:18.479Z,984.24
2019-01-17T15:54:24.490Z,984.23
2019-01-17T15:55:30.592Z,984.29
2019-01-17T15:56:36.623Z,984.33
2019-01-17T15:57:42.710Z,984.40
2019-01-17T15:58:48.756Z,984.41
2019-01-17T15:59:54.781Z,984.42
2019-01-17T16:01:00.830Z,984.48
2019-01-17T16:02:06.895Z,984.46
2019-01-17T16:03:12.957Z,984.40
2019-01-17T16:04:19.009Z,984.51
2019-01-17T16:05:25.055Z,984.55
2019-01-17T16:06:31.334Z,984.55
2019-01-17T16:07:37.204Z,984.59
2019-01-17T16:08:43.261Z,984.64
2019-01-17T16:09:48.797Z,984.73
2019-01-17T16:10:55.352Z,984.80
2019-01-17T16:12:02.430Z,984.80
2019-01-17T16:13:07.485Z,984.85
2019-01-17T16:14:13.614Z,984.90
2019-01-17T16:15:19.610Z,984.78
2019-01-17T16:16:25.647Z,984.92
2019-01-17T16:17:31.689Z,985.15
2019-01-17T16:18:37.749Z,984.84
2019-01-17T16:19:43.804Z,984.98
2019-01-17T16:20:49.866Z,985.01
2019-01-17T16:21:55.969Z,985.05
2019-01-17T16:23:01.970Z,985.01
2019-01-17T16:24:08.033Z,985.10
2019-01-17T16:25:14.085Z,985.07
2019-01-17T16:26:20.137Z,985.17
2019-01-17T16:27:26.231Z,985.21
2019-01-17T16:28:32.254Z,985.31
2019-01-17T16:29:38.310Z,985.27
2019-01-17T16:30:44.368Z,985.22
2019-01-17T16:31:50.423Z,985.44
2019-01-17T16:32:56.467Z,985.29
2019-01-17T16:34:02.521Z,985.32
2019-01-17T16:35:08.571Z,985.36
2019-01-17T16:36:14.632Z,985.38
2019-01-17T16:37:20.694Z,985.42
2019-01-17T16:38:27.364Z,985.45
2019-01-17T16:39:32.797Z,985.56
2019-01-17T16:40:38.849Z,985.67
2019-01-17T16:41:44.409Z,985.62
2019-01-17T16:42:50.974Z,985.61
2019-01-17T16:43:57.020Z,985.60
2019-01-17T16:45:03.075Z,985.62
2019-01-17T16:46:09.116Z,985.68
2019-01-17T16:47:15.228Z,985.81
2019-01-17T16:48:21.213Z,985.78
2019-01-17T16:49:27.278Z,985.83
2019-01-17T16:50:33.341Z,985.91
2019-01-17T16:51:39.396Z,985.84
2019-01-17T16:52:45.474Z,986.01
2019-01-17T16:53:51.602Z,985.92
2019-01-17T16:54:57.072Z,986.08
2019-01-17T16:56:03.142Z,986.04
2019-01-17T16:57:09.710Z,986.09
2019-01-17T16:58:15.750Z,986.17
2019-01-17T16:59:21.803Z,986.14
2019-01-17T17:00:27.863Z,986.21
2019-01-17T17:01:33.914Z,986.19
2019-01-17T17:02:39.990Z,986.25
2019-01-17T17:03:46.037Z,986.36
2019-01-17T17:04:52.071Z,986.41
2019-01-17T17:05:58.141Z,986.47
2019-01-17T17:07:04.242Z,986.48
2019-01-17T17:08:10.249Z,986.51
2019-01-17T17:09:16.301Z,986.56
2019-01-17T17:10:22.342Z,986.59
2019-01-17T17:11:28.403Z,986.67
2019-01-17T17:12:34.462Z,986.71
2019-01-17T17:13:40.525Z,986.70
2019-01-17T17:14:46.608Z,986.73
2019-01-17T17:15:52.643Z,986.73
2019-01-17T17:16:58.688Z,986.72
2019-01-17T17:18:05.743Z,986.73
2019-01-17T17:19:10.802Z,986.75
2019-01-17T17:20:16.857Z,986.70
2019-01-17T17:21:22.910Z,986.75
2019-01-17T17:22:28.970Z,986.70
2019-01-17T17:23:35.041Z,986.71
2019-01-17T17:24:40.574Z,986.72
2019-01-17T17:25:46.643Z,986.74
2019-01-17T17:26:52.681Z,986.75
2019-01-17T17:27:59.242Z,986.74
2019-01-17T17:29:05.281Z,986.76
2019-01-17T17:30:11.325Z,986.73
2019-01-17T17:31:17.473Z,986.71
2019-01-17T17:32:23.425Z,986.79
2019-01-17T17:33:29.617Z,986.78
2019-01-17T17:34:35.525Z,986.77
2019-01-17T17:35:42.534Z,986.80
2019-01-17T17:36:47.621Z,986.92
2019-01-17T17:37:53.179Z,986.83
2019-01-17T17:38:59.708Z,986.87
2019-01-17T17:40:05.758Z,986.97
2019-01-17T17:41:11.841Z,986.98
2019-01-17T17:42:17.366Z,986.89
2019-01-17T17:44:29.983Z,986.96
2019-01-17T17:45:35.636Z,987.01
2019-01-17T17:46:42.369Z,986.92
2019-01-17T17:47:48.079Z,987.03
2019-01-17T17:48:54.145Z,986.98
2019-01-17T17:50:00.172Z,986.92
2019-01-17T17:51:06.231Z,986.93
2019-01-17T17:52:12.426Z,987.00
2019-01-17T17:53:18.319Z,986.91
2019-01-17T17:54:23.876Z,986.93
2019-01-17T17:55:30.423Z,986.93
2019-01-17T17:56:36.458Z,986.93
2019-01-17T17:57:42.514Z,986.99
2019-01-17T17:58:48.559Z,987.12
2019-01-17T17:59:55.607Z,987.23
2019-01-17T18:01:00.645Z,987.18
2019-01-17T18:02:06.693Z,987.09
2019-01-17T18:03:12.242Z,987.16
2019-01-17T18:04:18.784Z,987.25
2019-01-17T18:05:24.820Z,987.24
2019-01-17T18:06:31.235Z,987.33
2019-01-17T18:07:36.928Z,987.30
2019-01-17T18:08:42.445Z,987.35
2019-01-17T18:09:48.974Z,987.32
2019-01-17T18:10:55.021Z,987.37
2019-01-17T18:12:01.529Z,987.55
2019-01-17T18:13:06.661Z,987.48
2019-01-17T18:14:13.165Z,987.47
2019-01-17T18:15:19.588Z,987.51
2019-01-17T18:16:25.298Z,987.47
2019-01-17T18:17:31.283Z,987.44
2019-01-17T18:18:37.318Z,987.44
2019-01-17T18:19:43.380Z,987.40
2019-01-17T18:20:49.459Z,987.50
2019-01-17T18:21:56.439Z,987.56
2019-01-17T18:23:02.479Z,987.47
2019-01-17T18:24:07.525Z,987.58
2019-01-17T18:25:13.618Z,987.55
2019-01-17T18:26:19.651Z,987.60
2019-01-17T18:27:25.636Z,987.60
2019-01-17T18:28:31.776Z,987.70
2019-01-17T18:29:37.727Z,987.60
2019-01-17T18:30:43.749Z,987.68
2019-01-17T18:31:49.793Z,987.62
2019-01-17T18:32:55.824Z,987.67
2019-01-17T18:34:01.848Z,987.57
2019-01-17T18:35:07.886Z,987.58
2019-01-17T18:36:14.245Z,987.44
2019-01-17T18:37:19.470Z,987.34
2019-01-17T18:38:25.494Z,987.45
2019-01-17T18:39:32.041Z,987.39
2019-01-17T18:40:38.064Z,987.41
2019-01-17T18:41:44.074Z,987.40
2019-01-17T18:42:50.124Z,987.49
2019-01-17T18:43:56.151Z,987.48
2019-01-17T18:45:02.182Z,987.59
2019-01-17T18:46:08.219Z,987.51
2019-01-17T18:47:14.258Z,987.48
2019-01-17T18:48:19.763Z,987.53
2019-01-17T18:49:26.292Z,987.63
2019-01-17T18:50:33.325Z,987.92
2019-01-17T18:51:38.371Z,987.57
2019-01-17T18:52:44.435Z,987.59
2019-01-17T18:53:50.414Z,987.56
2019-01-17T18:54:55.942Z,987.83
2019-01-17T18:56:01.976Z,987.68
2019-01-17T18:57:08.497Z,987.66
2019-01-17T18:58:15.717Z,987.60
2019-01-17T18:59:20.610Z,987.59
2019-01-17T19:00:26.582Z,987.55
2019-01-17T19:01:32.632Z,987.51
2019-01-17T19:02:38.149Z,987.61
2019-01-17T19:03:44.657Z,987.39
2019-01-17T19:04:50.688Z,987.66
2019-01-17T19:05:56.724Z,987.63
2019-01-17T19:07:02.749Z,987.62
2019-01-17T19:08:08.790Z,987.45
2019-01-17T19:09:14.781Z,987.53
2019-01-17T19:10:20.875Z,987.47
2019-01-17T19:11:26.840Z,987.60
2019-01-17T19:12:32.889Z,987.71
2019-01-17T19:13:38.898Z,987.60
2019-01-17T19:14:44.905Z,987.71
2019-01-17T19:15:50.948Z,987.78
2019-01-17T19:16:56.471Z,987.75
2019-01-17T19:18:02.990Z,987.79
2019-01-17T19:19:09.004Z,987.77
2019-01-17T19:20:15.047Z,987.82
2019-01-17T19:21:21.069Z,987.72
2019-01-17T19:22:27.074Z,987.86
2019-01-17T19:23:33.116Z,987.76
2019-01-17T19:24:39.123Z,987.81
2019-01-17T19:25:45.266Z,987.82
2019-01-17T19:26:51.201Z,987.93
2019-01-17T19:27:57.200Z,988.04
2019-01-17T19:29:03.218Z,987.94
2019-01-17T19:30:09.263Z,987.95
2019-01-17T19:31:15.275Z,988.17
2019-01-17T19:32:21.286Z,987.89
2019-01-17T19:33:27.306Z,987.88
2019-01-17T19:34:33.343Z,987.91
2019-01-17T19:35:39.354Z,987.91
2019-01-17T19:36:45.392Z,987.85
2019-01-17T19:37:51.411Z,987.99
2019-01-17T19:38:57.426Z,988.15
2019-01-17T19:40:03.444Z,987.96
2019-01-17T19:41:09.484Z,987.99
2019-01-17T19:42:15.606Z,987.98
2019-01-17T19:43:21.616Z,988.09
2019-01-17T19:44:27.536Z,987.95
2019-01-17T19:45:33.632Z,988.10
2019-01-17T19:46:39.632Z,988.06
2019-01-17T19:47:45.593Z,988.01
2019-01-17T19:48:53.534Z,988.05
2019-01-17T19:49:57.640Z,988.06
2019-01-17T19:51:03.680Z,988.12
2019-01-17T19:52:09.700Z,988.13
2019-01-17T19:53:15.711Z,988.05
2019-01-17T19:54:21.760Z,988.14
2019-01-17T19:55:27.759Z,988.22
2019-01-17T19:56:33.346Z,988.10
2019-01-17T19:57:39.806Z,988.27
2019-01-17T19:58:45.775Z,988.20
2019-01-17T19:59:52.878Z,988.24